Time;durP1;ratioP1;P1;durP2;ratioP2;P2;SDS_P1;SDS_P2;PMS_P1;PMS_P2;Temp;Humidity;BMP_temperature;BMP_pressure;BME280_temperature;BME280_humidity;BME280_pressure;Samples;Min_cycle;Max_cycle;Signal;HPM_P1;HPM_P2
2023/03/31 00:02:12;;;;;;;0.40;0.40;;;;;;;14.06;67.09;99536.22;5323502;26;33829;-82
2023/03/31 00:04:44;;;;;;;0.52;0.52;;;;;;;14.15;66.98;99529.50;5288823;26;33274;-82
2023/03/31 00:07:15;;;;;;;;;;;;;;;14.13;67.03;99527.87;5324919;26;34072;-81
2023/03/31 00:09:47;;;;;;;0.00;0.00;;;;;;;14.27;66.66;99519.88;5306169;26;33673;-81
2023/03/31 00:12:15;;;;;;;0.10;0.10;;;;;;;14.23;66.49;99526.34;5305977;26;33624;-81
2023/03/31 00:14:43;;;;;;;0.30;0.30;;;;;;;14.22;66.51;99524.62;5287266;26;33005;-82
2023/03/31 00:17:11;;;;;;;0.88;0.70;;;;;;;14.20;66.62;99522.09;5305325;26;32688;-82
2023/03/31 00:19:40;;;;;;;0.80;0.80;;;;;;;14.23;66.48;99523.69;5286874;26;32853;-82
2023/03/31 00:22:09;;;;;;;0.43;0.43;;;;;;;14.17;66.62;99516.97;5305227;26;33658;-82
2023/03/31 00:24:37;;;;;;;0.47;0.45;;;;;;;14.13;66.52;99525.22;5287289;26;33336;-83
2023/03/31 00:27:05;;;;;;;0.88;0.80;;;;;;;14.14;66.44;99516.28;5286402;26;33680;-82
2023/03/31 00:29:34;;;;;;;0.30;0.30;;;;;;;14.08;66.48;99528.16;5306080;26;33003;-82
2023/03/31 00:32:03;;;;;;;1.25;0.82;;;;;;;14.16;66.15;99519.72;5305185;26;32617;-82
2023/03/31 00:34:31;;;;;;;0.45;0.45;;;;;;;14.41;64.67;99519.84;5286902;26;33371;-82
2023/03/31 00:37:01;;;;;;;0.50;0.50;;;;;;;14.16;65.02;99515.25;5295147;26;264394;-82
2023/03/31 00:39:34;;;;;;;0.47;0.47;;;;;;;14.02;65.53;99508.16;5305222;26;34165;-82
2023/03/31 00:42:03;;;;;;;0.15;0.13;;;;;;;13.87;66.00;99519.72;5287915;26;32420;-81
2023/03/31 00:44:34;;;;;;;0.20;0.20;;;;;;;13.80;65.75;99508.63;5306130;26;33288;-82
2023/03/31 00:47:16;;;;;;;0.20;0.20;;;;;;;13.75;65.74;99504.56;5286831;26;33058;-82
2023/03/31 00:49:46;;;;;;;0.30;0.20;;;;;;;13.72;65.77;99510.03;5323503;26;33487;-82
2023/03/31 00:52:17;;;;;;;0.20;0.20;;;;;;;13.60;65.74;99511.66;5305645;26;33809;-82
2023/03/31 00:54:49;;;;;;;0.62;0.62;;;;;;;13.65;65.52;99506.06;5323368;26;32939;-82
2023/03/31 00:57:22;;;;;;;0.45;0.45;;;;;;;13.49;65.88;99520.25;5285913;26;33637;-82
2023/03/31 00:59:58;;;;;;;0.75;0.30;;;;;;;13.52;65.69;99509.44;5285731;26;33814;-82
2023/03/31 01:02:30;;;;;;;1.62;1.05;;;;;;;13.60;65.15;99516.97;5322226;26;32904;-82
2023/03/31 01:05:00;;;;;;;0.20;0.20;;;;;;;13.54;64.92;99512.87;5324381;26;33593;-82
2023/03/31 01:07:37;;;;;;;0.80;0.80;;;;;;;13.39;65.40;99507.63;5287952;26;33891;-82
2023/03/31 01:10:07;;;;;;;0.55;0.52;;;;;;;13.53;64.61;99510.28;5305769;26;33356;-82
2023/03/31 01:12:40;;;;;;;0.62;0.40;;;;;;;13.27;65.01;99503.91;5305806;26;33066;-82
2023/03/31 01:15:10;;;;;;;0.20;0.10;;;;;;;13.31;64.99;99505.44;5305690;26;33501;-82
2023/03/31 01:17:43;;;;;;;1.23;1.05;;;;;;;13.23;64.85;99497.94;5306657;26;34524;-84
2023/03/31 01:20:39;;;;;;;0.75;0.75;;;;;;;12.88;65.21;99499.13;5324076;26;33769;-82
2023/03/31 01:23:17;;;;;;;1.00;0.88;;;;;;;12.79;65.27;99503.16;5286264;26;33236;-82
2023/03/31 01:26:20;;;;;;;0.32;0.30;;;;;;;12.82;64.80;99498.56;5323595;26;34751;-81
2023/03/31 01:29:17;;;;;;;0.13;0.13;;;;;;;12.71;65.19;99500.09;5322955;26;33597;-81
2023/03/31 01:32:12;;;;;;;0.10;0.10;;;;;;;12.66;65.42;99502.16;5287033;26;33887;-82
2023/03/31 01:34:55;;;;;;;0.82;0.80;;;;;;;12.59;65.90;99506.09;5323465;26;33530;-82
2023/03/31 01:38:18;;;;;;;1.15;1.05;;;;;;;12.37;66.41;99504.66;5322869;26;33204;-81
2023/03/31 01:41:18;;;;;;;0.55;0.55;;;;;;;12.74;64.58;99508.72;5256690;27;34783;-82
2023/03/31 01:44:02;;;;;;;0.30;0.30;;;;;;;12.49;65.19;99503.97;5304963;26;34090;-82
2023/03/31 01:47:10;;;;;;;2.62;1.12;;;;;;;12.51;65.38;99504.72;5304802;26;32772;-82
2023/03/31 01:50:04;;;;;;;1.15;0.88;;;;;;;12.33;65.67;99511.03;5323172;26;34442;-81
2023/03/31 01:52:54;;;;;;;0.40;0.40;;;;;;;12.26;65.59;99512.34;5287393;26;33409;-82
2023/03/31 01:55:35;;;;;;;0.73;0.73;;;;;;;12.23;66.01;99509.84;5286493;26;33063;-82
2023/03/31 01:58:12;;;;;;;0.93;0.35;;;;;;;12.51;64.59;99517.97;5305636;26;33514;-82
2023/03/31 02:00:50;;;;;;;0.60;0.60;;;;;;;12.33;64.29;99505.75;5304316;26;33301;-81
2023/03/31 02:03:23;;;;;;;1.00;1.00;;;;;;;12.11;65.02;99511.41;5305156;26;33917;-81
2023/03/31 02:05:55;;;;;;;0.75;0.75;;;;;;;12.33;64.34;99504.91;5304803;26;34302;-81
2023/03/31 02:08:28;;;;;;;1.65;1.55;;;;;;;12.14;64.89;99510.34;5323139;26;34572;-81
2023/03/31 02:10:59;;;;;;;2.33;0.60;;;;;;;12.03;64.97;99501.22;5305981;26;33640;-81
2023/03/31 02:13:28;;;;;;;1.83;1.52;;;;;;;12.01;65.08;99511.03;5305318;26;34180;-82
2023/03/31 02:15:58;;;;;;;2.10;1.48;;;;;;;11.81;65.70;99508.56;5286784;26;32642;-82
2023/03/31 02:18:32;;;;;;;0.40;0.20;;;;;;;11.86;65.16;99505.69;5305138;26;34039;-82
2023/03/31 02:21:02;;;;;;;0.28;0.28;;;;;;;11.84;65.22;99497.84;5305161;26;33605;-82
2023/03/31 02:23:32;;;;;;;0.22;0.22;;;;;;;11.90;64.98;99500.16;5305314;26;34143;-82
2023/03/31 02:26:14;;;;;;;0.00;0.00;;;;;;;11.81;65.18;99495.31;5322122;26;32607;-82
2023/03/31 02:28:43;;;;;;;0.90;0.52;;;;;;;11.81;65.13;99495.31;5304835;26;33957;-82
2023/03/31 02:31:31;;;;;;;0.15;0.10;;;;;;;11.74;65.15;99497.47;5285908;26;34533;-82
2023/03/31 02:34:00;;;;;;;0.10;0.10;;;;;;;11.73;65.27;99486.97;5323899;26;34531;-83
2023/03/31 02:36:29;;;;;;;13.52;1.95;;;;;;;11.62;65.67;99491.97;5306370;26;33191;-82
2023/03/31 02:39:02;;;;;;;0.03;0.03;;;;;;;11.72;65.06;99483.44;5306101;26;33252;-82
2023/03/31 02:41:34;;;;;;;0.17;0.17;;;;;;;11.72;64.94;99472.00;5288730;26;33371;-82
2023/03/31 02:44:02;;;;;;;0.13;0.13;;;;;;;11.62;65.25;99487.53;5305700;26;33783;-82
2023/03/31 02:46:32;;;;;;;0.30;0.30;;;;;;;11.65;65.16;99487.38;5324197;26;33972;-82
2023/03/31 02:49:01;;;;;;;0.15;0.15;;;;;;;11.62;64.98;99495.44;5324554;26;33825;-83
2023/03/31 02:51:37;;;;;;;;;;;;;;;11.47;65.38;99488.34;5289009;26;32266;-83
2023/03/31 02:54:25;;;;;;;1.00;0.95;;;;;;;11.47;65.34;99483.03;5305935;26;32837;-83
2023/03/31 02:57:08;;;;;;;0.40;0.40;;;;;;;11.47;64.99;99478.59;5324098;26;33080;-82
2023/03/31 02:59:40;;;;;;;1.92;1.83;;;;;;;11.56;64.56;99485.22;5305886;26;33761;-83
2023/03/31 03:02:25;;;;;;;0.25;0.25;;;;;;;11.46;64.75;99492.78;5305202;26;33338;-82
2023/03/31 03:05:08;;;;;;;1.00;1.00;;;;;;;11.41;64.79;99486.88;5323559;26;32969;-82
2023/03/31 03:07:57;;;;;;;1.75;0.40;;;;;;;11.39;64.99;99501.09;5323423;26;33513;-83
2023/03/31 03:10:27;;;;;;;1.12;0.88;;;;;;;11.42;64.42;99475.34;5323890;26;34091;-82
2023/03/31 03:13:15;;;;;;;1.83;0.60;;;;;;;11.28;64.55;99483.16;5287095;26;33825;-83
2023/03/31 03:15:49;;;;;;;0.17;0.17;;;;;;;11.22;64.74;99488.75;5306389;26;34289;-83
2023/03/31 03:18:18;;;;;;;0.22;0.22;;;;;;;11.17;64.75;99486.34;5287406;26;32935;-83
2023/03/31 03:20:50;;;;;;;0.20;0.20;;;;;;;11.26;64.45;99482.37;5305791;26;34022;-83
2023/03/31 03:23:17;;;;;;;0.70;0.60;;;;;;;11.18;64.50;99482.75;5324091;26;33574;-83
2023/03/31 03:25:45;;;;;;;0.20;0.20;;;;;;;11.18;64.24;99482.75;5323776;26;33564;-82
2023/03/31 03:28:13;;;;;;;1.48;0.68;;;;;;;11.19;64.45;99486.25;5324066;26;33954;-82
2023/03/31 03:30:43;;;;;;;0.10;0.10;;;;;;;11.34;63.46;99474.87;5306273;26;33863;-83
2023/03/31 03:33:15;;;;;;;0.82;0.45;;;;;;;10.96;64.26;99485.63;5288824;26;32805;-83
2023/03/31 03:35:46;;;;;;;1.10;0.60;;;;;;;11.03;64.19;99479.12;5306212;26;33414;-83
2023/03/31 03:38:16;;;;;;;0.22;0.22;;;;;;;11.02;64.27;99472.12;5306695;26;33603;-83
2023/03/31 03:40:44;;;;;;;0.10;0.10;;;;;;;11.29;62.97;99469.00;5287641;26;33843;-83
2023/03/31 03:43:16;;;;;;;0.28;0.28;;;;;;;11.40;61.82;99466.66;5288773;26;32881;-82
2023/03/31 03:45:51;;;;;;;0.22;0.22;;;;;;;10.94;63.16;99469.00;5305145;26;33281;-82
2023/03/31 03:48:20;;;;;;;1.52;1.08;;;;;;;10.92;63.21;99464.72;5305592;26;32627;-82
2023/03/31 03:50:49;;;;;;;0.10;0.10;;;;;;;10.75;64.30;99478.78;5324125;26;33489;-82
2023/03/31 03:53:19;;;;;;;0.20;0.20;;;;;;;10.76;64.17;99476.06;5306536;26;33889;-82
2023/03/31 03:55:58;;;;;;;0.28;0.28;;;;;;;10.61;64.87;99486.53;5306089;26;34852;-82
2023/03/31 03:58:26;;;;;;;0.20;0.20;;;;;;;10.52;65.23;99483.41;5306583;26;32825;-82
2023/03/31 04:00:55;;;;;;;1.30;0.60;;;;;;;10.66;64.34;99476.59;5305695;26;33974;-84
2023/03/31 04:03:25;;;;;;;1.17;0.62;;;;;;;10.64;64.54;99478.47;5305236;26;33345;-83
2023/03/31 04:05:54;;;;;;;0.37;0.15;;;;;;;10.62;64.49;99467.13;5305835;26;33509;-82
2023/03/31 04:08:26;;;;;;;0.10;0.10;;;;;;;10.54;64.80;99474.56;5324474;26;33576;-82
2023/03/31 04:11:06;;;;;;;0.50;0.50;;;;;;;10.67;63.60;99454.53;5324147;26;35132;-82
2023/03/31 04:13:35;;;;;;;0.40;0.37;;;;;;;10.56;64.06;99456.88;5287273;26;32869;-82
2023/03/31 04:16:04;;;;;;;0.40;0.22;;;;;;;10.63;63.72;99447.69;5324108;26;32975;-82
2023/03/31 04:18:41;;;;;;;0.30;0.30;;;;;;;10.70;62.73;99454.41;5305682;26;32646;-81
2023/03/31 04:21:23;;;;;;;0.20;0.20;;;;;;;10.34;64.18;99460.53;5287918;26;32631;-82
2023/03/31 04:24:03;;;;;;;0.45;0.45;;;;;;;10.21;64.35;99447.06;5325496;26;34037;-81
2023/03/31 04:26:43;;;;;;;0.62;0.45;;;;;;;9.99;65.59;99451.63;5306373;26;34234;-82
2023/03/31 04:29:18;;;;;;;0.45;0.45;;;;;;;10.08;65.31;99455.62;5307627;26;34146;-81
2023/03/31 04:31:51;;;;;;;0.37;0.37;;;;;;;10.06;65.79;99457.47;5306386;26;32792;-82
2023/03/31 04:34:33;;;;;;;0.00;0.00;;;;;;;10.44;64.14;99466.22;5306085;26;33393;-81
2023/03/31 04:37:03;;;;;;;1.30;1.00;;;;;;;10.23;64.52;99462.81;5307030;26;34143;-82
2023/03/31 04:39:32;;;;;;;1.48;0.75;;;;;;;10.18;64.73;99462.19;5302721;26;32747;-81
2023/03/31 04:42:01;;;;;;;0.37;0.37;;;;;;;10.05;65.50;99456.62;5321052;26;33631;-82
2023/03/31 04:44:31;;;;;;;1.33;0.85;;;;;;;10.15;65.41;99463.16;5285916;26;34301;-81
2023/03/31 04:47:10;;;;;;;0.32;0.32;;;;;;;10.24;65.19;99456.62;5303517;26;34331;-81
2023/03/31 04:49:43;;;;;;;0.40;0.40;;;;;;;10.22;65.21;99458.47;5304783;26;32975;-82
2023/03/31 04:52:19;;;;;;;0.22;0.22;;;;;;;10.03;65.57;99452.34;5321302;26;33971;-82
2023/03/31 04:54:55;;;;;;;0.57;0.45;;;;;;;10.04;66.06;99454.06;5305757;26;34543;-82
2023/03/31 04:57:24;;;;;;;0.13;0.13;;;;;;;10.16;65.56;99445.53;5303254;26;33463;-81
2023/03/31 04:59:55;;;;;;;1.27;0.50;;;;;;;10.16;65.74;99448.19;5303804;26;33020;-81
2023/03/31 05:02:25;;;;;;;0.10;0.10;;;;;;;10.26;65.25;99446.88;5303651;26;33717;-81
2023/03/31 05:05:00;;;;;;;0.05;0.05;;;;;;;10.22;65.26;99443.50;5322460;26;35053;-81
2023/03/31 05:07:30;;;;;;;0.00;0.00;;;;;;;10.13;65.55;99443.06;5303812;26;33202;-82
2023/03/31 05:10:07;;;;;;;0.30;0.30;;;;;;;10.17;65.78;99434.09;5287550;26;32954;-82
2023/03/31 05:12:38;;;;;;;0.28;0.28;;;;;;;10.31;65.79;99431.69;5322044;26;34262;-81
2023/03/31 05:15:08;;;;;;;0.40;0.40;;;;;;;10.43;65.57;99433.69;5321407;26;33849;-81
2023/03/31 05:17:39;;;;;;;0.32;0.32;;;;;;;10.20;66.58;99434.78;5320950;26;34696;-81
2023/03/31 05:20:15;;;;;;;1.12;1.12;;;;;;;10.45;65.98;99425.72;5320310;26;33184;-81
2023/03/31 05:22:51;;;;;;;1.50;0.88;;;;;;;10.54;66.11;99424.38;5322354;26;34391;-82
2023/03/31 05:25:22;;;;;;;3.80;2.35;;;;;;;10.86;64.98;99428.06;5285345;26;32940;-81
2023/03/31 05:27:51;;;;;;;1.67;1.55;;;;;;;10.95;64.95;99417.88;5320383;26;33576;-82
2023/03/31 05:30:28;;;;;;;0.57;0.37;;;;;;;10.96;65.18;99424.88;5321527;26;34340;-81
2023/03/31 05:33:04;;;;;;;0.62;0.62;;;;;;;10.82;66.06;99421.22;5286458;26;34224;-82
2023/03/31 05:35:34;;;;;;;0.93;0.93;;;;;;;10.94;66.32;99421.47;5302787;26;33887;-82
2023/03/31 05:38:06;;;;;;;0.77;0.77;;;;;;;10.99;66.89;99422.09;5319252;26;34000;-82
2023/03/31 05:40:35;;;;;;;2.83;0.73;;;;;;;10.94;67.94;99426.75;5302781;26;32539;-82
2023/03/31 05:43:04;;;;;;;2.47;2.33;;;;;;;11.07;68.05;99426.97;5284820;26;32856;-82
2023/03/31 05:45:34;;;;;;;0.75;0.75;;;;;;;11.07;69.00;99426.12;5301301;26;33934;-82
2023/03/31 05:48:03;;;;;;;4.47;0.90;;;;;;;11.34;68.80;99423.81;5319946;26;33991;-82
2023/03/31 05:50:33;;;;;;;0.00;0.00;;;;;;;11.51;68.93;99413.22;5283790;26;33932;-83
2023/03/31 05:53:06;;;;;;;1.35;1.17;;;;;;;11.67;68.98;99416.72;5320067;26;33858;-82
2023/03/31 05:55:35;;;;;;;0.40;0.40;;;;;;;11.98;68.21;99421.22;5319157;26;34773;-83
2023/03/31 05:58:07;;;;;;;1.08;0.98;;;;;;;12.21;67.72;99422.59;5301722;26;34197;-83
2023/03/31 06:00:39;;;;;;;0.93;0.93;;;;;;;12.52;67.49;99416.38;5302232;26;33162;-83
2023/03/31 06:03:09;;;;;;;1.55;1.45;;;;;;;12.64;67.74;99414.00;5302327;26;33243;-82
2023/03/31 06:05:40;;;;;;;1.12;0.68;;;;;;;12.52;68.62;99413.75;5320705;26;33261;-82
2023/03/31 06:08:10;;;;;;;0.10;0.10;;;;;;;12.50;68.68;99409.50;5321392;26;34321;-83
2023/03/31 06:13:20;;;;;;;0.55;0.55;;;;;;;12.70;68.24;99410.97;5323563;26;34763;-83
2023/03/31 06:15:56;;;;;;;5.57;1.30;;;;;;;12.95;67.55;99403.28;5321021;26;34718;-83
2023/03/31 06:18:27;;;;;;;2.40;2.20;;;;;;;13.13;67.14;99400.47;5303100;26;34203;-83
2023/03/31 06:21:03;;;;;;;1.33;1.25;;;;;;;13.46;66.29;99387.81;5304851;26;33870;-83
2023/03/31 06:23:35;;;;;;;2.60;1.20;;;;;;;13.29;66.94;99394.19;5322049;26;33571;-82
2023/03/31 06:26:06;;;;;;;4.65;1.87;;;;;;;13.65;65.38;99392.00;5302441;26;33438;-82
2023/03/31 06:28:41;;;;;;;0.22;0.22;;;;;;;13.71;64.76;99391.59;5286765;26;32921;-83
2023/03/31 06:31:14;;;;;;;0.62;0.62;;;;;;;13.47;65.58;99394.81;5284748;26;32561;-83
2023/03/31 06:36:21;;;;;;;0.28;0.20;;;;;;;14.03;65.02;99387.75;5322836;26;33983;-82
2023/03/31 06:38:51;;;;;;;0.40;0.40;;;;;;;14.05;64.25;99385.84;5320734;26;34217;-83
2023/03/31 06:41:25;;;;;;;1.05;1.00;;;;;;;14.12;64.89;99388.09;5302395;26;32344;-82
2023/03/31 06:43:57;;;;;;;0.20;0.20;;;;;;;14.35;64.43;99379.50;5322226;26;33852;-82
2023/03/31 06:46:30;;;;;;;1.65;0.77;;;;;;;14.11;64.93;99389.06;5303431;26;33252;-82
2023/03/31 06:48:59;;;;;;;0.43;0.32;;;;;;;14.05;64.27;99391.16;5283980;26;33458;-82
2023/03/31 06:51:28;;;;;;;1.30;1.25;;;;;;;14.15;63.89;99401.16;5301974;26;33464;-82
2023/03/31 06:54:03;;;;;;;1.40;0.20;;;;;;;14.21;63.24;99408.75;5302241;26;33103;-82
2023/03/31 06:56:46;;;;;;;0.35;0.35;;;;;;;14.28;62.62;99402.06;5304506;26;32856;-82
2023/03/31 06:59:22;;;;;;;0.60;0.43;;;;;;;14.58;62.16;99405.41;5304383;26;34214;-82
2023/03/31 07:01:50;;;;;;;2.08;1.58;;;;;;;14.98;61.59;99397.41;5302248;26;33494;-82
2023/03/31 07:04:18;;;;;;;1.77;1.08;;;;;;;15.05;60.65;99387.22;5301305;26;34569;-82
2023/03/31 07:06:50;;;;;;;0.60;0.55;;;;;;;15.29;61.19;99387.34;5302297;26;33203;-82
2023/03/31 07:09:22;;;;;;;2.12;0.47;;;;;;;15.48;60.65;99389.56;5322441;26;34100;-82
2023/03/31 07:11:56;;;;;;;;;;;;;;;15.81;60.13;99389.84;5304721;26;33605;-83
2023/03/31 07:14:26;;;;;;;0.88;0.88;;;;;;;15.87;57.84;99392.06;5304316;26;34716;-82
2023/03/31 07:17:02;;;;;;;0.00;0.00;;;;;;;15.79;58.96;99382.94;5321694;26;36075;-83
2023/03/31 07:19:32;;;;;;;0.13;0.13;;;;;;;15.92;59.80;99378.41;5321382;26;34578;-82
2023/03/31 07:22:05;;;;;;;0.40;0.40;;;;;;;16.26;59.33;99378.63;5304647;26;33758;-82
2023/03/31 07:24:35;;;;;;;3.55;0.75;;;;;;;16.27;59.16;99367.84;5304249;26;32639;-83
2023/03/31 07:27:05;;;;;;;0.20;0.20;;;;;;;15.74;58.15;99369.09;5322259;26;33932;-82
2023/03/31 07:29:35;;;;;;;0.55;0.50;;;;;;;15.95;58.14;99372.88;5305058;26;34352;-82
2023/03/31 07:32:04;;;;;;;0.95;0.73;;;;;;;15.52;58.53;99365.25;5323628;26;33233;-82
2023/03/31 07:34:40;;;;;;;0.17;0.17;;;;;;;15.61;57.10;99359.28;5308014;26;34071;-81
2023/03/31 07:37:11;;;;;;;0.88;0.88;;;;;;;16.41;56.56;99353.50;5287001;26;33772;-81
2023/03/31 07:39:40;;;;;;;1.98;1.80;;;;;;;16.21;56.90;99346.16;5323945;26;34399;-84
2023/03/31 07:42:11;;;;;;;0.22;0.22;;;;;;;16.55;56.56;99344.47;5305198;26;32441;-82
2023/03/31 07:44:40;;;;;;;2.15;1.42;;;;;;;16.13;57.76;99344.87;5323105;26;33745;-82
2023/03/31 07:47:09;;;;;;;0.10;0.10;;;;;;;16.21;57.81;99346.16;5303922;26;33246;-82
2023/03/31 07:49:38;;;;;;;0.62;0.20;;;;;;;16.40;57.46;99349.12;5322207;26;34400;-81
2023/03/31 07:52:13;;;;;;;10.40;1.48;;;;;;;16.43;56.30;99342.75;5269140;26;31991;-82
2023/03/31 07:54:43;;;;;;;4.57;0.62;;;;;;;16.43;55.88;99340.91;5317858;26;32503;-81
2023/03/31 07:57:15;;;;;;;1.75;0.88;;;;;;;16.11;58.18;99346.81;5323460;26;34434;-81
2023/03/31 07:59:54;;;;;;;3.70;1.05;;;;;;;16.16;56.90;99345.63;5308282;26;35552;-81
2023/03/31 08:02:33;;;;;;;0.73;0.47;;;;;;;16.10;56.73;99334.47;5324160;26;33402;-81
2023/03/31 08:05:03;;;;;;;0.37;0.37;;;;;;;16.22;56.58;99337.19;5322795;26;33240;-88
2023/03/31 08:07:35;;;;;;;1.37;1.27;;;;;;;16.42;56.88;99333.88;5322910;26;32565;-89
2023/03/31 08:10:12;;;;;;;0.50;0.50;;;;;;;16.73;55.95;99323.59;5284912;26;33439;-89
2023/03/31 08:12:44;;;;;;;0.05;0.05;;;;;;;16.51;56.77;99317.19;5321368;26;34423;-89
2023/03/31 08:15:15;;;;;;;0.30;0.25;;;;;;;16.69;56.80;99311.44;5300866;26;32616;-89
2023/03/31 08:17:54;;;;;;;1.00;0.35;;;;;;;16.80;54.90;99311.47;5303995;26;33810;-89
2023/03/31 08:20:25;;;;;;;1.40;0.73;;;;;;;16.71;55.08;99309.47;5285605;26;33291;-89
2023/03/31 08:22:55;;;;;;;0.50;0.50;;;;;;;17.17;55.32;99306.78;5303007;26;34970;-89
2023/03/31 08:25:31;;;;;;;0.35;0.35;;;;;;;17.56;54.04;99309.94;5303833;26;32611;-89
2023/03/31 08:28:00;;;;;;;0.20;0.20;;;;;;;17.20;55.15;99303.91;5302604;26;32823;-89
2023/03/31 08:30:29;;;;;;;0.75;0.68;;;;;;;17.56;55.18;99300.09;5302568;26;34143;-89
2023/03/31 08:32:59;;;;;;;0.60;0.47;;;;;;;17.44;54.31;99289.56;5303427;26;33998;-89
2023/03/31 08:35:30;;;;;;;1.08;0.93;;;;;;;17.32;54.31;99281.56;5304082;26;33220;-89
2023/03/31 08:37:58;;;;;;;0.05;0.05;;;;;;;17.73;53.57;99271.19;5320753;26;33917;-88
2023/03/31 08:40:34;;;;;;;0.37;0.37;;;;;;;17.29;54.77;99272.97;5302543;26;34066;-88
2023/03/31 08:43:11;;;;;;;0.65;0.47;;;;;;;17.26;54.39;99271.38;5304159;26;34101;-88
2023/03/31 08:45:53;;;;;;;0.30;0.30;;;;;;;17.72;54.29;99262.34;5306665;26;35746;-89
2023/03/31 08:48:30;;;;;;;0.50;0.50;;;;;;;18.11;52.99;99252.03;5301994;26;33670;-88
2023/03/31 08:51:45;;;;;;;0.47;0.47;;;;;;;17.82;52.60;99246.44;5288548;26;34394;-89
2023/03/31 08:54:39;;;;;;;0.25;0.25;;;;;;;17.90;52.18;99247.50;5280773;26;33896;-89
2023/03/31 08:57:35;;;;;;;0.40;0.40;;;;;;;18.13;52.62;99229.53;5285586;26;32931;-89
2023/03/31 09:00:13;;;;;;;0.20;0.20;;;;;;;17.81;52.87;99229.56;5284884;26;32921;-89
2023/03/31 09:02:58;;;;;;;0.17;0.17;;;;;;;18.55;51.55;99229.56;5302991;26;33322;-89
2023/03/31 09:05:34;;;;;;;0.40;0.40;;;;;;;18.61;52.69;99222.81;5302310;26;33248;-89
2023/03/31 09:08:33;;;;;;;1.10;1.00;;;;;;;18.53;50.31;99220.84;5289851;26;32461;-88
2023/03/31 09:11:45;;;;;;;0.20;0.20;;;;;;;18.36;52.58;99216.91;5306153;26;34753;-89
2023/03/31 09:14:45;;;;;;;0.93;0.55;;;;;;;18.14;54.38;99217.91;5320867;26;33919;-88
2023/03/31 09:17:27;;;;;;;0.77;0.77;;;;;;;18.32;54.85;99211.97;5295586;26;32949;-89
2023/03/31 09:20:07;;;;;;;0.37;0.30;;;;;;;18.16;53.81;99215.09;5302806;26;33171;-89
2023/03/31 09:22:42;;;;;;;0.37;0.37;;;;;;;18.39;52.32;99208.66;5284372;26;33156;-89
2023/03/31 09:25:31;;;;;;;2.47;1.73;;;;;;;18.60;52.31;99200.59;5303003;26;32832;-89
2023/03/31 09:28:02;;;;;;;0.40;0.32;;;;;;;18.81;51.09;99207.78;5302762;26;33276;-89
2023/03/31 09:30:33;;;;;;;0.30;0.30;;;;;;;18.98;50.48;99204.47;5302739;26;34186;-90
2023/03/31 09:33:17;;;;;;;0.32;0.32;;;;;;;19.10;50.54;99191.84;5324280;26;34006;-88
2023/03/31 09:35:51;;;;;;;0.20;0.20;;;;;;;19.45;49.47;99186.00;5305553;26;32608;-87
2023/03/31 09:38:19;;;;;;;0.15;0.15;;;;;;;19.22;48.78;99184.53;5323001;26;34223;-88
2023/03/31 09:40:52;;;;;;;0.10;0.10;;;;;;;18.86;49.98;99178.81;5304201;26;33382;-86
2023/03/31 09:43:26;;;;;;;0.13;0.13;;;;;;;18.85;48.25;99174.44;5304143;26;32961;-87
2023/03/31 09:45:55;;;;;;;0.20;0.10;;;;;;;19.25;46.95;99168.22;5304214;26;34005;-87
2023/03/31 09:48:35;;;;;;;0.13;0.13;;;;;;;19.58;47.89;99170.53;5320275;26;33334;-87
2023/03/31 09:51:18;;;;;;;1.20;0.50;;;;;;;19.59;49.25;99166.84;5306209;26;33255;-87
2023/03/31 09:53:55;;;;;;;1.85;0.55;;;;;;;19.69;48.83;99172.25;5322528;26;34795;-87
2023/03/31 09:56:52;;;;;;;0.00;0.00;;;;;;;19.64;48.24;99164.63;5289036;26;33089;-87
2023/03/31 09:59:33;;;;;;;0.62;0.45;;;;;;;19.26;49.97;99160.03;5271309;26;32880;-87
2023/03/31 10:02:25;;;;;;;1.48;0.60;;;;;;;19.34;49.36;99156.69;5323603;26;33310;-88
2023/03/31 10:04:54;;;;;;;0.10;0.10;;;;;;;19.32;48.83;99142.56;5324570;26;33923;-87
2023/03/31 10:07:25;;;;;;;0.28;0.10;;;;;;;19.55;49.58;99138.66;5305887;26;34835;-88
2023/03/31 10:09:54;;;;;;;1.50;0.80;;;;;;;19.44;49.08;99133.44;5287414;26;33643;-87
2023/03/31 10:12:28;;;;;;;0.25;0.25;;;;;;;19.81;48.28;99127.44;5323635;26;33235;-88
2023/03/31 10:15:22;;;;;;;3.62;0.65;;;;;;;19.60;47.84;99128.41;5323230;26;34796;-88
2023/03/31 10:17:52;;;;;;;0.35;0.35;;;;;;;19.44;47.01;99120.06;5302379;26;33755;-88
2023/03/31 10:20:29;;;;;;;0.13;0.13;;;;;;;19.64;46.08;99107.56;5324257;26;33737;-88
2023/03/31 10:23:15;;;;;;;0.35;0.30;;;;;;;18.95;46.43;99124.50;5322447;26;34704;-87
2023/03/31 10:25:46;;;;;;;0.30;0.20;;;;;;;19.65;45.91;99112.78;5304656;26;33144;-88
2023/03/31 10:28:18;;;;;;;0.17;0.17;;;;;;;19.34;47.37;99113.84;5301933;27;34225;-88
2023/03/31 10:30:53;;;;;;;0.30;0.17;;;;;;;19.62;47.66;99099.66;5293780;26;32767;-88
2023/03/31 10:33:26;;;;;;;0.50;0.50;;;;;;;19.56;48.35;99096.66;5301929;26;33860;-87
2023/03/31 10:36:08;;;;;;;0.20;0.20;;;;;;;19.27;49.18;99096.66;5287403;26;33197;-88
2023/03/31 10:38:49;;;;;;;0.47;0.47;;;;;;;19.16;49.74;99097.62;5305265;26;32768;-88
2023/03/31 10:41:26;;;;;;;0.62;0.62;;;;;;;19.49;49.97;99090.19;5305535;26;34414;-88
2023/03/31 10:44:01;;;;;;;0.60;0.52;;;;;;;19.57;49.71;99088.50;5286633;26;34070;-88
2023/03/31 10:46:49;;;;;;;0.57;0.20;;;;;;;18.90;47.96;99095.47;5283687;26;34492;-88
2023/03/31 10:49:27;;;;;;;0.52;0.43;;;;;;;18.96;47.48;99083.38;5319402;26;33476;-89
2023/03/31 10:51:58;;;;;;;0.25;0.25;;;;;;;19.18;47.91;99080.47;5302456;26;33180;-89
2023/03/31 10:54:32;;;;;;;1.12;0.47;;;;;;;19.73;46.33;99073.72;5320400;26;33795;-88
2023/03/31 10:57:07;;;;;;;0.62;0.35;;;;;;;19.92;44.26;99071.00;5303226;26;32635;-88
2023/03/31 10:59:57;;;;;;;0.05;0.05;;;;;;;19.68;44.78;99069.63;5302084;26;32971;-88
2023/03/31 11:03:11;;;;;;;3.10;0.62;;;;;;;20.35;43.58;99064.25;5322393;26;33125;-88
2023/03/31 11:05:51;;;;;;;0.10;0.10;;;;;;;20.73;42.38;99057.03;5319845;26;32722;-87
2023/03/31 11:11:45;;;;;;;0.90;0.73;;;;;;;20.97;41.36;99052.78;5322307;26;33931;-87
2023/03/31 11:14:14;;;;;;;2.17;0.62;;;;;;;20.95;42.76;99059.31;5301840;26;33812;-87
2023/03/31 11:17:08;;;;;;;2.75;0.70;;;;;;;20.51;41.34;99056.47;5318568;26;33000;-88
2023/03/31 11:20:01;;;;;;;0.55;0.55;;;;;;;20.65;42.33;99047.94;5321454;26;34537;-86
2023/03/31 11:23:09;;;;;;;0.40;0.40;;;;;;;20.65;43.33;99042.56;5320572;26;33809;-87
2023/03/31 11:25:52;;;;;;;0.45;0.30;;;;;;;21.00;43.08;99035.56;5297460;26;33277;-88
2023/03/31 11:28:47;;;;;;;0.88;0.28;;;;;;;20.50;44.61;99027.09;5321664;26;34564;-87
2023/03/31 11:31:55;;;;;;;0.43;0.40;;;;;;;20.38;45.22;99023.75;5320102;26;33730;-88
2023/03/31 11:34:35;;;;;;;0.65;0.35;;;;;;;20.47;45.43;99004.13;5302381;26;33885;-87
2023/03/31 11:37:51;;;;;;;0.37;0.37;;;;;;;20.95;44.67;98984.19;5320358;26;35007;-87
2023/03/31 11:40:57;;;;;;;0.00;0.00;;;;;;;20.68;44.52;98982.38;5302923;26;32641;-88
2023/03/31 11:43:33;;;;;;;0.08;0.08;;;;;;;20.39;46.22;98971.81;5320723;26;34846;-87
2023/03/31 11:46:24;;;;;;;0.43;0.43;;;;;;;20.16;46.51;98964.16;5284302;26;32792;-88
2023/03/31 11:49:06;;;;;;;0.28;0.28;;;;;;;20.36;46.48;98956.00;5284320;26;32636;-89
2023/03/31 11:51:55;;;;;;;0.52;0.25;;;;;;;20.40;46.70;98954.72;5302487;26;33406;-88
2023/03/31 11:54:45;;;;;;;1.65;0.25;;;;;;;20.46;46.85;98941.56;5300889;26;33432;-88
2023/03/31 11:57:52;;;;;;;0.20;0.15;;;;;;;20.79;45.66;98939.22;5338379;26;33947;-89
2023/03/31 12:00:35;;;;;;;0.37;0.37;;;;;;;20.74;45.51;98933.47;5279724;26;32346;-88
2023/03/31 12:03:20;;;;;;;0.75;0.55;;;;;;;20.75;44.16;98927.16;5319550;26;34579;-88
2023/03/31 12:05:57;;;;;;;0.20;0.20;;;;;;;21.33;44.27;98923.12;5283814;26;32565;-89
2023/03/31 12:08:39;;;;;;;0.57;0.57;;;;;;;21.87;43.61;98916.56;5306190;26;34871;-88
2023/03/31 12:11:11;;;;;;;0.10;0.10;;;;;;;21.77;42.08;98909.63;5301837;26;32863;-89
2023/03/31 12:13:52;;;;;;;0.30;0.30;;;;;;;21.79;40.84;98910.31;5302213;26;33870;-89
2023/03/31 12:19:23;;;;;;;0.45;0.45;;;;;;;21.84;40.53;98898.09;5303269;26;34159;-88
2023/03/31 12:22:09;;;;;;;0.77;0.70;;;;;;;22.22;40.12;98899.44;5301863;26;33869;-88
2023/03/31 12:24:45;;;;;;;0.28;0.28;;;;;;;22.14;40.94;98895.87;5303665;26;33680;-89
2023/03/31 12:27:33;;;;;;;0.73;0.62;;;;;;;22.06;39.68;98898.50;5285287;26;32596;-88
2023/03/31 12:30:13;;;;;;;0.73;0.73;;;;;;;21.55;40.54;98911.84;5302191;26;33043;-89